Time;durP1;ratioP1;P1;durP2;ratioP2;P2;SDS_P1;SDS_P2;PMS_P1;PMS_P2;Temp;Humidity;BMP_temperature;BMP_pressure;BME280_temperature;BME280_humidity;BME280_pressure;Samples;Min_cycle;Max_cycle;Signal;HPM_P1;HPM_P2
2021/06/16 00:00:41;;;;;;;4.38;2.45;;;;;;;16.94;73.02;99963.16;6341226;28;20118;-62
2021/06/16 00:03:42;;;;;;;3.20;2.20;;;;;;;17.01;72.56;99966.91;6321294;28;20040;-62
2021/06/16 00:06:44;;;;;;;4.57;2.63;;;;;;;16.97;72.69;99962.06;6319965;28;20486;-62
2021/06/16 00:09:44;;;;;;;2.75;2.08;;;;;;;16.94;73.49;99964.97;6319808;28;20036;-62
2021/06/16 00:12:45;;;;;;;5.22;2.33;;;;;;;16.84;73.51;99960.53;6321922;28;20051;-61
2021/06/16 00:15:47;;;;;;;3.20;2.42;;;;;;;16.82;73.74;99957.19;6326179;28;20070;-62
2021/06/16 00:18:48;;;;;;;;;;;;;;;16.82;73.76;99970.38;6325468;28;20109;-61
2021/06/16 00:21:49;;;;;;;3.33;2.17;;;;;;;16.83;73.55;99965.91;6325865;28;19945;-61
2021/06/16 00:24:49;;;;;;;6.75;2.50;;;;;;;16.89;73.22;99965.38;6325699;28;20044;-62
2021/06/16 00:27:50;;;;;;;6.22;2.40;;;;;;;16.74;74.17;99967.53;6324486;28;20048;-62
2021/06/16 00:30:51;;;;;;;3.47;2.03;;;;;;;16.76;74.09;99970.03;6325933;28;20055;-62
2021/06/16 00:33:52;;;;;;;4.25;2.10;;;;;;;16.73;73.61;99960.59;6325793;28;20510;-62
2021/06/16 00:36:53;;;;;;;3.22;2.15;;;;;;;16.65;74.18;99958.63;6326013;28;20109;-62
2021/06/16 00:39:55;;;;;;;6.78;2.40;;;;;;;16.69;74.14;99964.47;6324474;28;20040;-61
2021/06/16 00:43:02;;;;;;;2.78;2.38;;;;;;;16.64;74.49;99958.78;6326063;28;20584;-61
2021/06/16 00:46:03;;;;;;;3.40;2.38;;;;;;;16.57;76.26;99971.63;6325304;28;20044;-62
2021/06/16 00:49:05;;;;;;;4.18;2.53;;;;;;;16.59;76.31;99958.34;6307616;28;20083;-61
2021/06/16 00:52:06;;;;;;;3.70;2.17;;;;;;;16.52;76.50;99955.41;6307206;28;20302;-62
2021/06/16 00:55:07;;;;;;;5.40;2.40;;;;;;;16.47;77.43;99954.97;6325313;28;20058;-62
2021/06/16 00:58:13;;;;;;;5.40;2.50;;;;;;;16.44;76.90;99956.06;6325255;28;20044;-62
2021/06/16 01:01:21;;;;;;;3.63;2.20;;;;;;;16.41;76.52;99953.72;6325191;28;20048;-62
2021/06/16 01:04:24;;;;;;;3.50;2.63;;;;;;;16.36;77.25;99953.28;6324931;28;20123;-61
2021/06/16 01:07:31;;;;;;;4.15;2.47;;;;;;;16.34;77.21;99957.03;6325061;28;20040;-62
2021/06/16 01:10:35;;;;;;;5.13;2.45;;;;;;;16.31;77.44;99952.84;6306765;28;20063;-61
2021/06/16 01:13:48;;;;;;;7.80;3.10;;;;;;;16.30;77.27;99959.91;6324677;28;20044;-62
2021/06/16 01:16:57;;;;;;;4.30;2.78;;;;;;;16.28;77.19;99955.75;6340642;28;20058;-62
2021/06/16 01:20:00;;;;;;;4.47;2.58;;;;;;;16.13;77.88;99959.72;6324814;28;20044;-61
2021/06/16 01:23:16;;;;;;;4.22;3.10;;;;;;;16.09;78.75;99957.31;6324500;28;20264;-62
2021/06/16 01:26:24;;;;;;;3.65;2.60;;;;;;;16.06;79.39;99952.34;6323341;28;20047;-61
2021/06/16 01:29:29;;;;;;;3.45;2.78;;;;;;;15.84;80.39;99958.59;6324363;28;20044;-61
2021/06/16 01:32:31;;;;;;;6.35;3.03;;;;;;;15.93;80.09;99946.44;6324393;28;20044;-62
2021/06/16 01:35:35;;;;;;;3.35;2.88;;;;;;;15.93;79.36;99943.81;6323191;28;20044;-62
2021/06/16 01:38:35;;;;;;;5.68;2.80;;;;;;;15.83;79.57;99948.19;6324370;28;20414;-62
2021/06/16 01:41:38;;;;;;;3.63;2.60;;;;;;;15.86;79.94;99958.47;6306185;28;20041;-62
2021/06/16 01:44:40;;;;;;;4.35;2.60;;;;;;;15.90;79.58;99959.88;6322855;28;20043;-61
2021/06/16 01:47:42;;;;;;;;;;;;;;;15.91;79.57;99945.72;6324549;28;20047;-61
2021/06/16 01:50:45;;;;;;;6.05;3.10;;;;;;;15.75;79.95;99954.13;6324032;28;20290;-62
2021/06/16 01:53:47;;;;;;;4.07;3.20;;;;;;;15.71;80.27;99948.25;6323971;28;20044;-61
2021/06/16 01:56:50;;;;;;;3.83;3.22;;;;;;;15.67;79.83;99954.72;6323582;28;20068;-61
2021/06/16 01:59:59;;;;;;;6.38;3.40;;;;;;;15.67;80.32;99946.81;6322369;28;20043;-62
2021/06/16 02:03:00;;;;;;;4.20;3.03;;;;;;;15.62;80.11;99950.78;6323530;28;20445;-61
2021/06/16 02:06:01;;;;;;;5.60;3.58;;;;;;;15.51;81.26;99952.53;6322405;28;20036;-61
2021/06/16 02:09:05;;;;;;;6.80;3.00;;;;;;;15.43;81.22;99949.69;6339267;28;20055;-61
2021/06/16 02:12:13;;;;;;;4.25;3.28;;;;;;;15.37;81.55;99952.00;6323409;28;20135;-62
2021/06/16 02:15:16;;;;;;;7.90;3.42;;;;;;;15.37;81.33;99952.84;6323216;28;20040;-61
2021/06/16 02:18:22;;;;;;;7.30;3.53;;;;;;;15.37;81.11;99950.22;6323317;28;20043;-62
2021/06/16 02:21:24;;;;;;;6.50;3.13;;;;;;;15.31;80.85;99948.91;6323348;28;20044;-62
2021/06/16 02:24:25;;;;;;;5.32;3.03;;;;;;;15.23;81.60;99950.50;6305178;28;20550;-61
2021/06/16 02:27:26;;;;;;;6.00;3.30;;;;;;;15.25;81.95;99946.78;6321857;28;20040;-61
2021/06/16 02:30:27;;;;;;;8.48;3.30;;;;;;;15.07;82.31;99951.78;6304961;28;20051;-60
2021/06/16 02:33:28;;;;;;;4.15;2.85;;;;;;;15.18;82.19;99953.53;6321695;28;20047;-61
2021/06/16 02:36:32;;;;;;;6.03;3.58;;;;;;;14.93;82.96;99959.94;6322612;28;20036;-60
2021/06/16 02:39:40;;;;;;;6.57;3.50;;;;;;;15.08;82.25;99961.31;6322920;28;20040;-61
2021/06/16 02:42:45;;;;;;;4.95;3.30;;;;;;;15.00;82.68;99965.53;6322739;28;20391;-61
2021/06/16 02:45:48;;;;;;;7.43;3.53;;;;;;;15.01;82.79;99965.41;6321369;28;20047;-61
2021/06/16 02:48:52;;;;;;;5.07;3.22;;;;;;;14.95;82.98;99962.44;6321399;28;20036;-62
2021/06/16 02:51:54;;;;;;;5.00;3.20;;;;;;;14.99;82.72;99966.47;6321382;28;20116;-61
2021/06/16 02:55:02;;;;;;;4.38;3.30;;;;;;;14.98;82.12;99964.81;6321135;28;20044;-61
2021/06/16 02:58:03;;;;;;;8.27;3.28;;;;;;;15.03;82.40;99973.16;6321119;28;20449;-60
2021/06/16 03:01:07;;;;;;;4.47;3.20;;;;;;;14.85;83.21;99970.22;6322322;28;20127;-61
2021/06/16 03:04:09;;;;;;;4.97;3.08;;;;;;;14.92;82.71;99976.66;6320933;28;20040;-61
2021/06/16 03:07:10;;;;;;;5.38;3.35;;;;;;;14.89;82.78;99982.16;6322067;28;20151;-61
2021/06/16 03:10:12;;;;;;;4.03;3.17;;;;;;;15.06;82.28;99986.88;6320846;28;20036;-61
2021/06/16 03:13:14;;;;;;;8.57;3.35;;;;;;;14.96;82.78;99983.31;6321770;28;20777;-60
2021/06/16 03:16:18;;;;;;;6.50;4.00;;;;;;;15.04;82.54;99983.53;6303799;28;20463;-62
2021/06/16 03:19:22;;;;;;;4.80;3.25;;;;;;;15.11;83.06;99982.09;6320703;28;20048;-60
2021/06/16 03:22:24;;;;;;;6.50;3.42;;;;;;;14.99;82.96;99990.13;6321809;28;20097;-61
2021/06/16 03:25:26;;;;;;;5.13;3.25;;;;;;;14.96;83.11;99990.38;6321373;28;20036;-61
2021/06/16 03:28:28;;;;;;;;;;;;;;;15.10;82.27;99993.56;6304053;28;20040;-62
2021/06/16 03:31:29;;;;;;;6.47;3.03;;;;;;;15.20;81.83;99992.81;6337549;28;19926;-61
2021/06/16 03:34:30;;;;;;;6.72;3.70;;;;;;;15.19;82.32;99997.22;6345445;28;20040;-61
2021/06/16 03:37:32;;;;;;;6.43;3.67;;;;;;;15.21;82.79;99995.31;6345611;28;20039;-61
2021/06/16 03:40:33;;;;;;;4.43;3.17;;;;;;;15.24;82.54;100004.75;6321466;28;20088;-62
2021/06/16 03:43:35;;;;;;;5.28;3.10;;;;;;;15.34;82.11;99997.78;6320258;28;20047;-61
2021/06/16 03:46:39;;;;;;;7.20;3.45;;;;;;;15.51;80.56;100006.91;6321321;28;20040;-61
2021/06/16 03:49:43;;;;;;;4.82;3.28;;;;;;;15.66;80.59;99994.28;6320723;28;20561;-61
2021/06/16 03:52:45;;;;;;;4.65;3.10;;;;;;;15.74;79.80;100001.59;6320195;28;20043;-63
2021/06/16 03:55:48;;;;;;;4.82;3.35;;;;;;;15.84;79.14;100005.13;6321144;28;20040;-63
2021/06/16 03:58:51;;;;;;;5.85;2.97;;;;;;;15.89;79.87;100000.28;6321226;28;20441;-63
2021/06/16 04:01:52;;;;;;;6.32;3.20;;;;;;;15.94;79.71;99992.00;6335309;28;20494;-63
2021/06/16 04:04:53;;;;;;;3.20;2.80;;;;;;;16.03;78.88;99999.13;6320866;28;20036;-63
2021/06/16 04:07:54;;;;;;;10.35;2.90;;;;;;;16.06;79.11;99999.72;6319526;28;20058;-63
2021/06/16 04:10:56;;;;;;;7.80;3.20;;;;;;;16.20;77.76;100008.22;6334717;28;20052;-63
2021/06/16 04:13:58;;;;;;;6.72;2.95;;;;;;;16.24;77.71;100002.56;6344588;28;20058;-63
2021/06/16 04:17:00;;;;;;;4.28;2.80;;;;;;;16.30;77.56;100009.09;6329967;28;20093;-63
2021/06/16 04:20:00;;;;;;;7.97;3.10;;;;;;;16.33;77.34;100006.22;6320970;28;20040;-63
2021/06/16 04:23:02;;;;;;;5.55;2.78;;;;;;;16.38;77.59;100003.19;6320837;28;20106;-64
2021/06/16 04:26:03;;;;;;;10.27;3.20;;;;;;;16.42;78.18;100010.69;6320701;28;20050;-61
2021/06/16 04:29:04;;;;;;;5.13;3.25;;;;;;;16.51;77.01;100012.53;6320731;28;20040;-61
2021/06/16 04:32:05;;;;;;;5.57;2.85;;;;;;;16.45;77.42;100001.66;6320833;28;20043;-61
2021/06/16 04:35:07;;;;;;;7.93;3.00;;;;;;;16.59;76.83;100011.84;6326036;28;20038;-61
2021/06/16 04:38:08;;;;;;;5.53;3.08;;;;;;;16.68;76.96;100015.50;6344588;28;20085;-61
2021/06/16 04:41:09;;;;;;;4.15;2.78;;;;;;;16.74;76.29;100012.34;6345727;28;20063;-62
2021/06/16 04:44:10;;;;;;;6.80;3.25;;;;;;;16.83;76.49;100011.53;6344645;28;20036;-61
2021/06/16 04:47:11;;;;;;;4.57;2.80;;;;;;;16.92;75.43;100009.88;6344510;28;20047;-61
2021/06/16 04:50:13;;;;;;;6.10;2.85;;;;;;;17.03;76.56;100012.44;6345829;28;20036;-61
2021/06/16 04:53:14;;;;;;;5.88;2.78;;;;;;;17.08;78.11;100010.19;6344128;28;20464;-61
2021/06/16 04:56:15;;;;;;;5.88;2.80;;;;;;;17.19;75.63;100011.03;6344471;28;20036;-61
2021/06/16 04:59:15;;;;;;;3.88;2.55;;;;;;;17.28;75.30;100012.88;6347591;28;20040;-62
2021/06/16 05:02:16;;;;;;;4.50;2.63;;;;;;;17.39;75.43;100020.63;6350495;28;20271;-61
2021/06/16 05:05:17;;;;;;;4.75;2.70;;;;;;;17.49;74.70;100016.19;6350323;28;20043;-62
2021/06/16 05:08:18;;;;;;;4.18;2.38;;;;;;;17.60;75.07;100017.84;6350146;28;20039;-62
2021/06/16 05:11:19;;;;;;;6.13;2.47;;;;;;;17.69;73.90;100022.31;6332155;28;20585;-62
2021/06/16 05:14:19;;;;;;;2.47;2.28;;;;;;;17.82;73.88;100018.53;6348964;28;20557;-62
2021/06/16 05:17:21;;;;;;;4.57;2.25;;;;;;;18.00;73.21;100018.69;6348722;28;20044;-62
2021/06/16 05:20:25;;;;;;;6.05;2.47;;;;;;;18.12;72.24;100022.84;6348906;28;20711;-61
2021/06/16 05:23:27;;;;;;;8.50;2.70;;;;;;;18.21;71.62;100027.25;6348752;28;20051;-62
2021/06/16 05:26:29;;;;;;;4.05;2.55;;;;;;;18.32;70.43;100027.06;6334941;28;20048;-62
2021/06/16 05:29:29;;;;;;;3.95;2.80;;;;;;;18.42;70.26;100027.03;6332466;28;20051;-62
2021/06/16 05:32:30;;;;;;;5.25;2.60;;;;;;;18.56;69.00;100030.19;6345881;28;20047;-61
2021/06/16 05:35:31;;;;;;;9.68;2.70;;;;;;;18.68;68.91;100042.22;6349578;28;20051;-61
2021/06/16 05:38:33;;;;;;;4.97;2.50;;;;;;;18.77;69.41;100041.34;6349672;28;20054;-60
2021/06/16 05:41:34;;;;;;;4.63;2.50;;;;;;;18.88;68.59;100041.19;6342635;27;20127;-60
2021/06/16 05:44:35;;;;;;;6.97;2.50;;;;;;;18.93;67.95;100033.63;6349556;28;20067;-61
2021/06/16 05:47:36;;;;;;;6.60;2.40;;;;;;;19.08;67.48;100039.25;6348385;28;20102;-61
2021/06/16 05:50:36;;;;;;;5.78;2.67;;;;;;;19.26;67.45;100035.81;6331345;28;20040;-61
2021/06/16 05:53:37;;;;;;;3.30;2.40;;;;;;;19.32;65.10;100046.59;6349472;28;20043;-61
2021/06/16 05:56:39;;;;;;;3.58;2.47;;;;;;;19.40;65.30;100050.31;6348059;28;20044;-62
2021/06/16 05:59:41;;;;;;;7.75;2.53;;;;;;;19.50;64.87;100043.97;6349205;28;20040;-61
2021/06/16 06:02:42;;;;;;;4.25;2.10;;;;;;;19.56;65.53;100042.53;6349164;28;20044;-61
2021/06/16 06:05:43;;;;;;;3.47;2.17;;;;;;;19.64;65.64;100045.25;6349229;28;20117;-62
2021/06/16 06:08:44;;;;;;;9.32;2.55;;;;;;;19.77;63.79;100052.84;6348910;28;20050;-61
2021/06/16 06:11:44;;;;;;;2.92;2.40;;;;;;;19.83;63.09;100051.38;6347203;28;20075;-62
2021/06/16 06:14:45;;;;;;;3.60;2.10;;;;;;;19.95;63.60;100059.91;6348852;28;20493;-62
2021/06/16 06:17:46;;;;;;;3.23;2.30;;;;;;;20.03;63.44;100050.19;6347640;28;20184;-66
2021/06/16 06:20:47;;;;;;;3.30;2.37;;;;;;;20.11;63.07;100047.59;6314072;28;20051;-65
2021/06/16 06:23:47;;;;;;;5.00;2.00;;;;;;;20.26;62.14;100050.53;6348028;28;20769;-63
2021/06/16 06:26:48;;;;;;;5.13;2.27;;;;;;;20.39;61.53;100049.28;6348473;28;20061;-62
2021/06/16 06:29:49;;;;;;;3.30;2.40;;;;;;;20.47;62.43;100050.16;6347212;28;20047;-67
2021/06/16 06:32:50;;;;;;;4.93;2.33;;;;;;;20.69;60.01;100045.28;6347496;28;20059;-66
2021/06/16 06:35:51;;;;;;;3.50;2.03;;;;;;;20.77;61.07;100047.16;6332569;28;20406;-66
2021/06/16 06:38:52;;;;;;;2.47;2.20;;;;;;;20.89;59.75;100052.00;6347609;28;20043;-66
2021/06/16 06:41:52;;;;;;;6.47;2.50;;;;;;;21.00;59.91;100044.75;6347163;28;20071;-66
2021/06/16 06:44:53;;;;;;;2.60;2.10;;;;;;;21.00;60.35;100047.41;6327928;28;20135;-65
2021/06/16 06:47:54;;;;;;;5.37;2.03;;;;;;;21.16;59.05;100046.63;6321873;28;20044;-65
2021/06/16 06:50:55;;;;;;;3.43;2.27;;;;;;;21.15;60.02;100048.44;6321208;28;20044;-63
2021/06/16 06:53:55;;;;;;;6.17;2.23;;;;;;;21.23;58.78;100055.56;6321284;28;20044;-63
2021/06/16 06:56:56;;;;;;;3.70;2.30;;;;;;;21.46;57.98;100050.53;6320872;28;20553;-65
2021/06/16 06:59:57;;;;;;;2.40;2.13;;;;;;;21.53;58.82;100048.88;6304599;28;20050;-66
2021/06/16 07:02:58;;;;;;;4.73;2.40;;;;;;;21.62;59.30;100045.22;6322355;28;20546;-65
2021/06/16 07:05:58;;;;;;;5.27;1.90;;;;;;;21.77;57.16;100044.56;6304131;28;20062;-66
2021/06/16 07:08:59;;;;;;;3.20;1.90;;;;;;;21.80;57.46;100041.56;6304140;28;20405;-66
2021/06/16 07:12:00;;;;;;;4.23;1.60;;;;;;;21.94;56.12;100049.69;6322358;28;20122;-65
2021/06/16 07:15:01;;;;;;;5.63;2.13;;;;;;;21.99;56.33;100056.31;6320684;28;20052;-65
2021/06/16 07:18:02;;;;;;;3.10;1.70;;;;;;;22.10;56.21;100042.72;6320898;28;20040;-63
2021/06/16 07:21:04;;;;;;;4.60;2.10;;;;;;;22.12;54.61;100046.84;6320474;28;20445;-63
2021/06/16 07:24:05;;;;;;;3.15;2.13;;;;;;;22.11;55.12;100047.88;6320777;28;20043;-63
2021/06/16 07:27:06;;;;;;;10.07;1.80;;;;;;;22.11;54.22;100050.53;6321568;28;20044;-65
2021/06/16 07:30:07;;;;;;;3.22;2.05;;;;;;;22.10;55.45;100048.03;6320457;28;20138;-65
2021/06/16 07:33:10;;;;;;;5.72;1.90;;;;;;;22.24;55.41;100042.03;6321898;28;20048;-65
2021/06/16 07:36:11;;;;;;;8.50;1.85;;;;;;;22.28;57.19;100031.91;6321569;28;20047;-66
2021/06/16 07:39:11;;;;;;;3.77;1.80;;;;;;;22.36;55.34;100039.84;6320449;28;20126;-65
2021/06/16 07:42:13;;;;;;;2.57;1.70;;;;;;;22.44;54.00;100033.69;6321516;28;20036;-65
2021/06/16 07:45:14;;;;;;;3.97;2.00;;;;;;;22.54;54.40;100026.31;6321730;28;20071;-65
2021/06/16 07:48:16;;;;;;;4.83;1.97;;;;;;;22.67;55.24;100034.59;6321100;28;20036;-65
2021/06/16 07:51:17;;;;;;;2.35;1.70;;;;;;;22.82;53.50;100031.22;6321321;28;20123;-65
2021/06/16 07:54:18;;;;;;;;;;;;;;;22.84;52.11;100030.03;6321846;28;20502;-65
2021/06/16 07:57:19;;;;;;;2.63;1.83;;;;;;;22.88;52.45;100030.53;6319982;28;20270;-66
2021/06/16 08:00:20;;;;;;;4.13;1.67;;;;;;;22.93;52.59;100042.28;6320091;28;20492;-65
2021/06/16 08:03:21;;;;;;;1.98;1.38;;;;;;;23.00;51.72;100025.63;6321306;28;20375;-65
2021/06/16 08:06:21;;;;;;;5.67;1.80;;;;;;;23.10;50.67;100035.09;6321110;28;20039;-65
2021/06/16 08:09:22;;;;;;;4.53;1.60;;;;;;;23.15;51.54;100039.88;6319817;28;20071;-66
2021/06/16 08:12:23;;;;;;;3.63;1.73;;;;;;;23.23;51.23;100041.66;6320936;28;20557;-65
2021/06/16 08:15:24;;;;;;;2.40;1.70;;;;;;;23.32;51.49;100048.56;6319703;28;20040;-66
2021/06/16 08:18:25;;;;;;;3.67;1.63;;;;;;;23.37;50.99;100051.56;6302847;28;20054;-66
2021/06/16 08:21:25;;;;;;;2.33;1.63;;;;;;;23.49;49.27;100043.97;6319574;28;20429;-66
2021/06/16 08:24:27;;;;;;;3.13;1.30;;;;;;;23.51;51.70;100049.94;6320965;28;20311;-66
2021/06/16 08:27:28;;;;;;;7.60;1.80;;;;;;;23.62;50.51;100044.22;6319426;28;20410;-66
2021/06/16 08:30:29;;;;;;;4.03;1.60;;;;;;;23.60;50.42;100050.72;6320630;28;20044;-66
2021/06/16 08:33:30;;;;;;;2.40;2.08;;;;;;;23.67;51.03;100055.13;6303434;28;20040;-65
2021/06/16 08:36:31;;;;;;;6.75;2.00;;;;;;;23.75;50.00;100048.91;6325834;28;20036;-66
2021/06/16 08:39:32;;;;;;;7.50;2.13;;;;;;;23.84;49.96;100061.19;6307628;28;20047;-66
2021/06/16 08:42:33;;;;;;;2.43;1.73;;;;;;;23.92;50.11;100057.63;6325547;28;20067;-65
2021/06/16 08:45:38;;;;;;;3.70;1.45;;;;;;;23.99;47.13;100058.56;6291157;28;20101;-66
2021/06/16 08:48:41;;;;;;;1.67;1.48;;;;;;;24.22;46.36;100053.19;6325459;28;20398;-65
2021/06/16 08:51:42;;;;;;;2.88;1.42;;;;;;;24.34;44.42;100057.06;6325364;28;20092;-66
2021/06/16 08:54:43;;;;;;;5.45;1.80;;;;;;;24.37;46.84;100055.84;6324029;28;20036;-66
2021/06/16 08:57:44;;;;;;;3.55;1.63;;;;;;;24.30;45.02;100047.75;6325257;28;20047;-66
2021/06/16 09:00:44;;;;;;;3.20;1.73;;;;;;;24.32;46.75;100055.59;6325362;28;20331;-62
2021/06/16 09:03:45;;;;;;;4.03;1.93;;;;;;;24.36;46.44;100054.22;6323887;28;20418;-66
2021/06/16 09:06:46;;;;;;;2.13;1.73;;;;;;;24.41;46.48;100056.31;6324972;28;20044;-63
2021/06/16 09:09:49;;;;;;;6.17;1.60;;;;;;;24.58;44.76;100056.97;6324768;28;20097;-65
2021/06/16 09:12:53;;;;;;;1.88;1.38;;;;;;;24.55;44.62;100060.03;6323529;28;20052;-66
2021/06/16 09:15:55;;;;;;;2.35;1.70;;;;;;;24.61;45.28;100060.13;6323571;28;20044;-66
2021/06/16 09:18:56;;;;;;;;;;;;;;;24.69;46.25;100069.88;6323768;28;20067;-65
2021/06/16 09:22:03;;;;;;;6.03;1.77;;;;;;;24.71;46.04;100058.00;6323456;28;19920;-66
2021/06/16 09:25:09;;;;;;;2.10;1.50;;;;;;;24.77;44.53;100051.09;6324571;28;20051;-66
2021/06/16 09:28:11;;;;;;;3.25;1.58;;;;;;;24.92;44.60;100067.06;6324331;28;20047;-65
2021/06/16 09:31:14;;;;;;;1.80;1.40;;;;;;;24.98;46.32;100055.66;6323157;28;20036;-66
2021/06/16 09:34:17;;;;;;;4.05;1.50;;;;;;;25.05;46.30;100050.38;6324412;28;20543;-65
2021/06/16 09:37:18;;;;;;;4.80;1.50;;;;;;;25.15;42.48;100056.25;6306160;28;20489;-65
2021/06/16 09:40:28;;;;;;;2.83;1.60;;;;;;;25.11;44.25;100054.97;6324250;28;20036;-65
2021/06/16 09:43:30;;;;;;;6.45;1.67;;;;;;;25.29;44.28;100062.59;6322942;28;20276;-66
2021/06/16 09:46:30;;;;;;;3.67;1.55;;;;;;;25.25;43.15;100066.66;6323252;28;20066;-65
2021/06/16 09:49:58;;;;;;;1.57;1.47;;;;;;;25.34;44.21;100061.00;6322643;28;20082;-66
2021/06/16 09:52:59;;;;;;;3.72;1.42;;;;;;;25.43;42.30;100059.03;6323966;28;20330;-65
2021/06/16 09:56:16;;;;;;;5.60;1.50;;;;;;;25.46;41.46;100055.97;6322881;28;20036;-65
2021/06/16 09:59:35;;;;;;;2.97;1.38;;;;;;;25.56;41.06;100049.50;6322646;28;20036;-65
2021/06/16 10:02:40;;;;;;;2.00;1.50;;;;;;;25.64;44.17;100060.88;6323651;28;20040;-65
2021/06/16 10:06:04;;;;;;;4.47;1.55;;;;;;;25.76;41.67;100061.19;6322462;28;20093;-65
2021/06/16 10:09:08;;;;;;;2.55;1.65;;;;;;;25.73;41.64;100062.38;6323379;28;20044;-65
2021/06/16 10:12:10;;;;;;;2.63;1.40;;;;;;;25.72;41.64;100054.59;6323444;28;20044;-65
2021/06/16 10:15:13;;;;;;;3.83;1.50;;;;;;;25.75;39.99;100059.53;6323238;28;20133;-66
2021/06/16 10:18:15;;;;;;;3.78;1.60;;;;;;;25.90;41.61;100064.81;6322214;28;20052;-66
2021/06/16 10:21:16;;;;;;;4.45;1.40;;;;;;;26.11;39.12;100070.13;6321825;28;20048;-66
2021/06/16 10:24:17;;;;;;;3.53;1.88;;;;;;;25.97;41.56;100065.72;6305243;28;20127;-65
2021/06/16 10:27:29;;;;;;;7.65;2.10;;;;;;;26.01;39.92;100058.94;6321784;28;20088;-66
2021/06/16 10:30:40;;;;;;;3.05;1.58;;;;;;;26.13;42.43;100068.09;6322905;28;20039;-65
2021/06/16 10:33:41;;;;;;;;;;;;;;;26.17;39.89;100055.16;6322187;28;20438;-65
2021/06/16 10:37:04;;;;;;;4.67;1.47;;;;;;;26.19;40.68;100061.16;6338552;28;19926;-65
2021/06/16 10:40:23;;;;;;;3.30;1.42;;;;;;;26.32;38.14;100057.72;6322761;28;20040;-65
2021/06/16 10:43:33;;;;;;;2.83;1.77;;;;;;;26.42;39.41;100063.53;6322651;28;20414;-65
2021/06/16 10:46:51;;;;;;;3.35;1.35;;;;;;;26.46;41.21;100051.44;6322613;28;20458;-65
2021/06/16 10:49:55;;;;;;;5.43;1.65;;;;;;;26.57;38.04;100052.75;6322423;28;20040;-65
2021/06/16 10:53:05;;;;;;;4.80;1.40;;;;;;;26.62;38.52;100054.81;6322494;28;20044;-66
2021/06/16 10:56:07;;;;;;;2.53;1.20;;;;;;;26.77;37.88;100050.16;6321119;28;20048;-66
2021/06/16 10:59:07;;;;;;;3.15;1.40;;;;;;;26.78;38.52;100046.44;6322369;28;20047;-65
2021/06/16 11:02:12;;;;;;;2.53;1.40;;;;;;;26.84;39.08;100044.84;6322189;28;20067;-65
2021/06/16 11:05:30;;;;;;;3.03;1.30;;;;;;;26.88;37.65;100054.94;6322213;28;20123;-65
2021/06/16 11:08:47;;;;;;;2.63;1.20;;;;;;;27.06;36.66;100050.88;6321837;28;20071;-65
2021/06/16 11:12:00;;;;;;;2.38;1.30;;;;;;;27.16;36.82;100042.44;6321891;28;20067;-65
2021/06/16 11:15:03;;;;;;;1.63;1.17;;;;;;;27.23;38.28;100054.88;6320582;28;20044;-66
2021/06/16 11:18:06;;;;;;;4.80;1.60;;;;;;;27.30;36.95;100046.84;6321965;28;20051;-66
2021/06/16 11:21:17;;;;;;;4.47;1.25;;;;;;;27.39;37.64;100050.19;6321681;28;20040;-66
2021/06/16 11:24:18;;;;;;;1.43;1.00;;;;;;;27.36;36.57;100048.69;6321727;28;20449;-65
2021/06/16 11:27:56;;;;;;;6.88;1.40;;;;;;;27.23;35.70;100052.19;6303576;28;20043;-65
2021/06/16 11:30:57;;;;;;;1.50;1.20;;;;;;;27.32;35.68;100048.31;6321461;28;20461;-66
2021/06/16 11:33:58;;;;;;;;;;;;;;;27.52;35.70;100047.50;6321917;28;20406;-65
2021/06/16 11:36:58;;;;;;;4.27;1.77;;;;;;;27.32;36.19;100044.78;6321436;28;19924;-65
2021/06/16 11:40:04;;;;;;;3.40;1.40;;;;;;;27.70;37.37;100038.84;6320051;28;20051;-65
2021/06/16 11:43:05;;;;;;;3.28;1.13;;;;;;;28.01;36.31;100040.94;6320314;28;20490;-65
2021/06/16 11:46:16;;;;;;;5.18;1.45;;;;;;;28.23;34.98;100044.22;6321330;28;20040;-65
2021/06/16 11:49:25;;;;;;;2.17;1.35;;;;;;;28.43;34.98;100038.75;6321375;28;20576;-65
2021/06/16 11:52:25;;;;;;;8.20;1.77;;;;;;;28.49;36.56;100031.75;6321160;28;20482;-65
2021/06/16 11:55:46;;;;;;;3.90;1.38;;;;;;;28.16;33.82;100039.88;6321383;28;20051;-65
2021/06/16 11:58:47;;;;;;;3.63;1.30;;;;;;;27.78;34.05;100032.44;6303023;28;20490;-65
2021/06/16 12:01:48;;;;;;;2.30;1.40;;;;;;;28.34;34.34;100022.09;6320886;28;20055;-65
2021/06/16 12:05:05;;;;;;;8.57;1.50;;;;;;;28.77;33.39;100020.72;6319751;28;20074;-65
2021/06/16 12:08:06;;;;;;;2.22;1.20;;;;;;;28.94;32.84;100031.78;6319122;28;20098;-65
2021/06/16 12:11:24;;;;;;;2.35;1.30;;;;;;;29.72;33.62;100028.84;6320703;28;20040;-65
2021/06/16 12:14:25;;;;;;;2.40;1.05;;;;;;;31.51;28.86;100029.66;6320618;28;20080;-65
2021/06/16 12:17:25;;;;;;;1.75;1.05;;;;;;;33.28;26.59;100018.56;6319525;28;20444;-65
2021/06/16 12:20:30;;;;;;;3.50;1.20;;;;;;;34.75;25.26;100014.72;6319401;28;20032;-66
2021/06/16 12:23:40;;;;;;;1.65;1.15;;;;;;;35.88;23.13;100019.25;6320689;28;20032;-65
2021/06/16 12:26:41;;;;;;;2.22;1.15;;;;;;;35.79;22.06;100024.38;6320737;28;20044;-64
2021/06/16 12:29:50;;;;;;;2.45;1.13;;;;;;;35.58;23.07;100022.53;6320582;28;20058;-64
2021/06/16 12:33:15;;;;;;;3.67;1.08;;;;;;;36.62;21.42;100012.00;6320652;28;20043;-65
2021/06/16 12:36:19;;;;;;;3.35;1.10;;;;;;;36.97;20.98;100008.59;6320660;28;20123;-65
2021/06/16 12:39:23;;;;;;;4.88;1.25;;;;;;;36.62;20.93;100007.41;6302716;28;20048;-66
2021/06/16 12:42:43;;;;;;;3.55;1.20;;;;;;;36.91;20.53;99996.06;6320417;28;20044;-64
2021/06/16 12:45:44;;;;;;;3.03;1.10;;;;;;;36.96;20.39;99996.06;6320660;28;20483;-63
2021/06/16 12:48:44;;;;;;;7.63;1.65;;;;;;;37.16;19.92;99997.22;6302152;28;20040;-62
2021/06/16 12:51:47;;;;;;;6.28;1.00;;;;;;;35.73;22.10;99998.28;6320197;28;20059;-63
2021/06/16 12:54:48;;;;;;;1.25;0.90;;;;;;;36.41;19.91;100000.28;6320790;28;20040;-63
2021/06/16 12:57:54;;;;;;;2.53;0.90;;;;;;;37.08;19.75;99993.09;6320294;28;20501;-63
2021/06/16 13:00:59;;;;;;;4.20;0.93;;;;;;;37.22;20.13;99990.69;6335929;28;20058;-64
2021/06/16 13:04:00;;;;;;;2.20;1.00;;;;;;;37.27;19.51;99991.50;6320075;28;20052;-63
2021/06/16 13:07:01;;;;;;;3.38;1.05;;;;;;;37.14;18.74;99986.59;6320226;28;20115;-63
2021/06/16 13:10:08;;;;;;;8.30;1.02;;;;;;;37.70;18.85;99988.47;6302035;28;20072;-63
2021/06/16 13:13:15;;;;;;;4.55;1.00;;;;;;;37.07;19.11;99986.03;6319985;28;20102;-65
2021/06/16 13:16:26;;;;;;;2.00;0.90;;;;;;;35.47;21.72;99986.38;6320561;28;20040;-64
2021/06/16 13:19:28;;;;;;;3.90;1.10;;;;;;;34.63;22.26;99974.19;6320011;28;20068;-64
2021/06/16 13:22:41;;;;;;;1.33;1.00;;;;;;;33.47;22.79;99976.69;6323501;28;20071;-64
2021/06/16 13:25:44;;;;;;;1.83;1.05;;;;;;;32.66;24.96;99971.50;6323333;28;20068;-64
2021/06/16 13:28:55;;;;;;;5.53;1.05;;;;;;;32.39;25.28;99968.50;6324240;28;20592;-64
2021/06/16 13:31:56;;;;;;;;;;;;;;;32.25;24.54;99967.13;6324781;28;20467;-64
2021/06/16 13:34:56;;;;;;;3.95;1.13;;;;;;;31.96;25.53;99967.03;6339920;28;19924;-64
2021/06/16 13:37:59;;;;;;;2.65;1.10;;;;;;;31.80;25.70;99970.47;6324624;28;20047;-63
2021/06/16 13:40:59;;;;;;;2.63;1.10;;;;;;;31.83;26.18;99968.09;6322840;28;20048;-64
2021/06/16 13:44:00;;;;;;;;;;;;;;;31.63;27.58;99967.63;6323361;28;20047;-63
2021/06/16 13:47:01;;;;;;;3.37;1.30;;;;;;;31.44;26.69;99962.38;6322895;28;20255;-64
2021/06/16 13:50:02;;;;;;;;;;;;;;;31.45;27.83;99964.00;6322935;28;20483;-64
2021/06/16 13:53:03;;;;;;;1.80;1.20;;;;;;;31.50;26.20;99969.53;6322732;28;20263;-63
2021/06/16 13:56:04;;;;;;;;;;;;;;;31.36;27.42;99970.75;6322954;28;20040;-63
2021/06/16 13:59:06;;;;;;;1.17;1.08;;;;;;;31.12;27.59;99965.31;6323762;28;19970;-63
2021/06/16 14:02:08;;;;;;;2.40;1.20;;;;;;;30.89;27.39;99968.78;6323461;28;20551;-63
2021/06/16 14:05:11;;;;;;;4.30;1.30;;;;;;;30.66;28.50;99963.25;6323682;28;20052;-64
2021/06/16 14:08:12;;;;;;;1.92;1.10;;;;;;;30.30;28.16;99962.28;6323390;28;20040;-63
2021/06/16 14:11:13;;;;;;;2.38;1.23;;;;;;;30.09;28.42;99964.34;6321973;28;20079;-63
2021/06/16 14:14:14;;;;;;;3.83;1.40;;;;;;;30.10;29.03;99957.94;6321988;28;20388;-64
2021/06/16 14:17:15;;;;;;;3.05;1.40;;;;;;;29.73;30.14;99965.13;6322372;28;20043;-63
2021/06/16 14:20:16;;;;;;;4.68;1.55;;;;;;;29.42;30.58;99958.75;6321992;28;20540;-64